createdAt,value
2017-06-22T12:24:44.599Z,25.9
2017-06-22T12:45:13.981Z,25.9
2017-06-22T12:46:22.068Z,25.9
2017-06-22T12:47:30.159Z,25.9
2017-06-22T12:48:38.246Z,26.0
2017-06-22T12:49:46.336Z,25.9
2017-06-22T12:50:54.430Z,25.9
2017-06-22T12:52:02.593Z,25.9
2017-06-22T12:53:10.609Z,26.0
2017-06-22T12:54:18.701Z,26.0
2017-06-22T12:55:26.791Z,26.0
2017-06-22T12:56:34.882Z,25.9
2017-06-22T12:57:43.055Z,26.0
2017-06-22T12:58:51.060Z,26.0
2017-06-22T12:59:59.150Z,26.0
2017-06-22T13:01:07.273Z,26.0
2017-06-22T13:02:16.055Z,26.0
2017-06-22T13:03:23.472Z,26.0
2017-06-22T13:12:03.089Z,26.1
2017-06-22T13:13:11.124Z,26.1
2017-06-22T13:14:19.217Z,26.1
2017-06-22T13:15:27.302Z,26.1
2017-06-22T13:16:35.394Z,26.0
2017-06-22T13:17:43.481Z,26.1
2017-06-22T13:18:51.572Z,26.0
2017-06-22T13:19:59.665Z,26.1
2017-06-22T13:21:07.754Z,26.1
2017-06-22T13:22:15.844Z,26.1
2017-06-22T13:23:23.932Z,26.1
2017-06-22T13:24:32.023Z,26.1
2017-06-22T13:25:40.118Z,26.1
2017-06-22T13:26:48.205Z,26.1
2017-06-22T13:27:56.296Z,26.1
2017-06-22T13:29:04.390Z,26.1
2017-06-22T13:30:12.478Z,26.1
2017-06-22T13:31:20.625Z,26.1
2017-06-22T13:32:28.656Z,26.2
2017-06-22T13:33:36.757Z,26.1
2017-06-22T13:35:54.554Z,26.1
2017-06-22T13:37:02.645Z,26.1
2017-06-22T13:38:10.733Z,26.2
2017-06-22T13:39:18.828Z,26.2
2017-06-22T13:40:26.919Z,26.1
2017-06-22T13:41:35.011Z,26.1
2017-06-22T13:42:43.112Z,26.1
2017-06-22T13:43:51.193Z,26.1
2017-06-22T13:44:59.311Z,26.2
2017-06-22T13:46:07.385Z,26.1
2017-06-22T13:47:15.476Z,26.1
2017-06-22T13:48:23.564Z,26.2
2017-06-22T13:49:31.662Z,26.1
2017-06-22T13:50:39.747Z,26.1
2017-06-22T13:51:47.837Z,26.3
2017-06-22T13:52:55.929Z,26.2
2017-06-22T13:54:04.022Z,26.1
2017-06-22T13:55:12.115Z,26.1
2017-06-22T13:56:20.206Z,26.3
2017-06-22T13:57:28.296Z,26.3
2017-06-22T13:58:36.386Z,26.3
2017-06-22T13:59:44.505Z,26.2
2017-06-22T14:00:52.569Z,26.2
2017-06-22T14:02:00.664Z,26.3
2017-06-22T14:03:08.752Z,26.3
2017-06-22T14:04:16.842Z,26.2
2017-06-22T14:05:24.936Z,26.2
2017-06-22T14:06:33.025Z,26.3
2017-06-22T14:07:41.119Z,26.3
2017-06-22T14:08:49.205Z,26.3
2017-06-22T14:09:57.297Z,26.3
2017-06-22T14:11:05.402Z,26.3
2017-06-22T14:12:13.479Z,26.3
2017-06-22T14:13:21.569Z,26.3
2017-06-22T14:14:29.662Z,26.3
2017-06-22T14:15:37.792Z,26.3
2017-06-22T14:16:45.843Z,26.4
2017-06-22T14:17:53.931Z,26.3
2017-06-22T14:19:02.024Z,26.3
2017-06-22T14:20:10.115Z,26.3
2017-06-22T14:21:18.206Z,26.4
2017-06-22T14:22:26.337Z,26.3
2017-06-22T14:23:34.390Z,26.3
2017-06-22T14:24:42.479Z,26.4
2017-06-22T14:25:50.571Z,26.3
2017-06-22T14:26:58.660Z,26.4
2017-06-22T14:28:06.770Z,26.4
2017-06-22T14:29:14.842Z,26.4
2017-06-22T14:30:22.940Z,26.4
2017-06-22T14:31:31.032Z,26.3
2017-06-22T14:32:39.122Z,26.3
2017-06-22T14:33:47.267Z,26.4
2017-06-22T14:34:55.302Z,26.4
2017-06-22T14:36:03.515Z,26.4
2017-06-22T14:37:11.484Z,26.3
2017-06-22T14:38:19.577Z,26.4
2017-06-22T14:39:27.665Z,26.4
2017-06-22T14:40:35.758Z,26.3
2017-06-22T14:41:43.852Z,26.4
2017-06-22T14:42:51.940Z,26.4
2017-06-22T14:44:00.031Z,26.4
2017-06-22T14:45:08.121Z,26.4
2017-06-22T14:46:16.213Z,26.4
2017-06-22T14:47:24.303Z,26.4
2017-06-22T14:48:32.394Z,26.4
2017-06-22T14:49:40.487Z,26.4
2017-06-22T14:50:48.579Z,26.4
2017-06-22T14:51:56.668Z,26.4
2017-06-22T14:53:04.761Z,26.4
2017-06-22T14:54:12.848Z,26.4
2017-06-22T14:55:20.938Z,26.5
2017-06-22T14:56:29.031Z,26.5
2017-06-22T14:57:37.122Z,26.5
2017-06-22T14:58:45.213Z,26.4
2017-06-22T14:59:53.304Z,26.5
2017-06-22T15:01:01.395Z,26.4
2017-06-22T15:02:09.487Z,26.5
2017-06-22T15:03:17.578Z,26.5
2017-06-22T15:04:25.667Z,26.5
2017-06-22T15:05:33.862Z,26.4
2017-06-22T15:06:41.949Z,26.5
2017-06-22T15:07:50.051Z,26.5
2017-06-22T15:08:58.141Z,26.5
2017-06-22T15:10:06.235Z,26.5
2017-06-22T15:11:14.326Z,26.4
2017-06-22T15:12:22.416Z,26.6
2017-06-22T15:13:30.508Z,26.5
2017-06-22T15:14:38.600Z,26.5
2017-06-22T15:15:46.690Z,26.5
2017-06-22T15:16:54.780Z,26.5
2017-06-22T15:18:02.872Z,26.5
2017-06-22T15:19:10.960Z,26.5
2017-06-22T15:20:19.052Z,26.5
2017-06-22T15:21:27.145Z,26.5
2017-06-22T15:22:35.234Z,26.5
2017-06-22T15:23:43.328Z,26.6
2017-06-22T15:24:51.442Z,26.6
2017-06-22T15:25:59.510Z,26.6
2017-06-22T15:27:07.600Z,26.7
2017-06-22T15:28:15.691Z,26.7
2017-06-22T15:29:23.784Z,26.7
2017-06-22T15:30:31.874Z,26.7
2017-06-22T15:31:39.963Z,26.8
2017-06-22T15:32:48.056Z,26.7
2017-06-22T15:33:56.147Z,26.7
2017-06-22T15:35:04.237Z,26.6
2017-06-22T15:36:12.329Z,26.8
2017-06-22T15:37:20.418Z,26.7
2017-06-22T15:38:28.509Z,26.7
2017-06-22T15:39:36.602Z,26.8
2017-06-22T15:40:44.691Z,26.7
2017-06-22T15:41:52.803Z,26.7
2017-06-22T15:43:00.872Z,26.8
2017-06-22T15:44:08.965Z,26.8
2017-06-22T15:45:17.055Z,26.8
2017-06-22T15:46:25.148Z,26.7
2017-06-22T15:47:33.238Z,26.8
2017-06-22T15:48:41.329Z,26.9
2017-06-22T15:49:49.421Z,26.8
2017-06-22T15:50:57.510Z,26.9
2017-06-22T15:52:05.603Z,26.8
2017-06-22T15:53:13.694Z,26.9
2017-06-22T15:54:21.786Z,26.8
2017-06-22T15:55:29.877Z,26.8
2017-06-22T15:56:37.967Z,26.9
2017-06-22T15:57:46.058Z,26.9
2017-06-22T15:58:54.174Z,26.9
2017-06-22T16:00:02.240Z,26.9
2017-06-22T16:01:10.331Z,26.9
2017-06-22T16:02:18.422Z,26.9
2017-06-22T16:03:26.512Z,26.9
2017-06-22T16:04:34.605Z,26.9
2017-06-22T16:05:42.696Z,26.9
2017-06-22T16:06:50.789Z,26.9
2017-06-22T16:07:58.878Z,26.9
2017-06-22T16:09:06.970Z,26.9
2017-06-22T16:10:15.059Z,26.9
2017-06-22T16:11:23.150Z,26.9
2017-06-22T16:12:31.242Z,26.9
2017-06-22T16:13:39.332Z,26.9
2017-06-22T16:14:47.425Z,27.0
2017-06-22T16:15:55.540Z,27.0
2017-06-22T16:17:03.607Z,27.0
2017-06-22T16:18:11.697Z,27.0
2017-06-22T16:19:19.789Z,26.9
2017-06-22T16:20:27.879Z,27.0
2017-06-22T16:21:35.967Z,27.0
2017-06-22T16:22:44.061Z,27.0
2017-06-22T16:23:52.153Z,27.0
2017-06-22T16:25:00.243Z,26.9
2017-06-22T16:26:08.333Z,27.0
2017-06-22T16:27:16.425Z,27.1
2017-06-22T16:28:24.517Z,27.0
2017-06-22T16:29:32.607Z,27.0
2017-06-22T16:30:40.697Z,27.0
2017-06-22T16:31:48.791Z,27.1
2017-06-22T16:32:56.889Z,27.1
2017-06-22T16:34:04.971Z,27.1
2017-06-22T16:35:13.064Z,27.1
2017-06-22T16:36:21.162Z,27.1
2017-06-22T16:37:29.245Z,27.2
2017-06-22T16:38:37.337Z,27.2
2017-06-22T16:39:45.427Z,27.2
2017-06-22T16:40:53.516Z,27.2
2017-06-22T16:42:01.607Z,27.2
2017-06-22T16:43:09.700Z,27.2
2017-06-22T16:44:17.791Z,27.1
2017-06-22T16:45:25.884Z,27.2
2017-06-22T16:46:33.973Z,27.2
2017-06-22T16:47:42.062Z,27.2
2017-06-22T16:48:50.154Z,27.2
2017-06-22T16:49:58.343Z,27.2
2017-06-22T16:51:06.337Z,27.2
2017-06-22T16:52:14.431Z,27.1
2017-06-22T16:53:22.522Z,27.2
2017-06-22T16:54:30.612Z,27.2
2017-06-22T16:55:38.704Z,27.2
2017-06-22T16:56:46.796Z,27.2
2017-06-22T16:57:54.888Z,27.2
2017-06-22T16:59:02.979Z,27.2
2017-06-22T17:00:11.072Z,27.2
2017-06-22T17:01:19.160Z,27.2
2017-06-22T17:02:27.256Z,27.2
2017-06-22T17:03:35.344Z,27.3
2017-06-22T17:04:43.437Z,27.2
2017-06-22T17:05:51.535Z,27.2
2017-06-22T17:06:59.625Z,27.3
2017-06-22T17:08:07.716Z,27.3
2017-06-22T17:09:15.809Z,27.3
2017-06-22T17:10:23.901Z,27.3
2017-06-22T17:11:31.994Z,27.3
2017-06-22T17:12:40.089Z,27.3
2017-06-22T17:13:48.181Z,27.3
2017-06-22T17:14:56.273Z,27.2
2017-06-22T17:16:04.363Z,27.2
2017-06-22T17:17:12.453Z,27.2
2017-06-22T17:18:20.547Z,27.2
2017-06-22T17:19:28.646Z,27.3
2017-06-22T17:20:36.738Z,27.2
2017-06-22T17:21:44.829Z,27.2
2017-06-22T17:22:52.919Z,27.2
2017-06-22T17:24:01.010Z,27.2
2017-06-22T17:25:09.102Z,27.3
2017-06-22T17:26:17.192Z,27.3
2017-06-22T17:27:25.284Z,27.2
2017-06-22T17:28:33.377Z,27.2
2017-06-22T17:29:41.468Z,27.3
2017-06-22T17:30:49.562Z,27.2
2017-06-22T17:31:57.650Z,27.2
2017-06-22T17:33:05.741Z,27.2
2017-06-22T17:34:13.832Z,27.2
2017-06-22T17:35:21.924Z,27.2
2017-06-22T17:36:30.016Z,27.2
2017-06-22T17:37:38.107Z,27.3
2017-06-22T17:38:46.198Z,27.1
2017-06-22T17:39:54.291Z,27.2
2017-06-22T17:41:02.409Z,27.2
2017-06-22T17:42:10.474Z,27.2
2017-06-22T17:43:18.565Z,27.2
2017-06-22T17:44:26.655Z,27.2
2017-06-22T17:45:34.748Z,27.1
2017-06-22T17:46:42.837Z,27.1
2017-06-22T17:47:50.930Z,27.2
2017-06-22T17:48:59.029Z,27.2
2017-06-22T17:50:07.121Z,27.1
2017-06-22T17:51:15.210Z,27.2
2017-06-22T17:52:23.302Z,27.1
2017-06-22T17:53:31.391Z,27.2
2017-06-22T17:54:39.484Z,27.2
2017-06-22T17:55:47.575Z,27.1
2017-06-22T17:56:55.665Z,27.2
2017-06-22T17:58:04.006Z,27.2
2017-06-22T17:59:11.855Z,27.1
2017-06-22T18:00:19.943Z,27.2
2017-06-22T18:01:28.035Z,27.1
2017-06-22T18:02:36.127Z,27.1
2017-06-22T18:03:44.217Z,27.2
2017-06-22T18:04:52.309Z,27.1
2017-06-22T18:06:00.400Z,27.1
2017-06-22T18:07:08.492Z,27.1
2017-06-22T18:08:16.585Z,27.1
2017-06-22T18:09:24.675Z,27.1
2017-06-22T18:10:32.764Z,27.1
2017-06-22T18:11:40.857Z,27.0
2017-06-22T18:12:48.946Z,27.1
2017-06-22T18:13:57.040Z,27.0
2017-06-22T18:15:05.129Z,27.0
2017-06-22T18:16:13.221Z,27.1
2017-06-22T18:17:21.312Z,27.1
2017-06-22T18:18:29.405Z,27.0
2017-06-22T18:19:37.494Z,27.0
2017-06-22T18:20:45.585Z,27.0
2017-06-22T18:21:53.677Z,27.0
2017-06-22T18:23:01.767Z,27.0
2017-06-22T18:24:09.860Z,27.0
2017-06-22T18:25:17.952Z,27.1
2017-06-22T18:26:26.043Z,27.1
2017-06-22T18:27:34.135Z,27.0
2017-06-22T18:28:42.249Z,27.0
2017-06-22T18:29:50.321Z,27.1
2017-06-22T18:30:58.412Z,27.1
2017-06-22T18:32:06.503Z,27.1
2017-06-22T18:33:14.594Z,27.0
2017-06-22T18:34:22.687Z,27.0
2017-06-22T18:35:30.777Z,27.0
2017-06-22T18:36:38.870Z,27.0
2017-06-22T18:37:46.962Z,27.0
2017-06-22T18:38:55.050Z,27.0
2017-06-22T18:40:03.143Z,26.9
2017-06-22T18:41:11.234Z,26.9
2017-06-22T18:42:19.322Z,27.0
2017-06-22T18:43:27.417Z,27.0
2017-06-22T18:44:35.506Z,27.0
2017-06-22T18:45:43.599Z,27.0
2017-06-22T18:46:51.689Z,27.0
2017-06-22T18:47:59.780Z,26.9
2017-06-22T18:49:07.869Z,26.9
2017-06-22T18:50:15.960Z,26.9
2017-06-22T18:51:24.053Z,27.0
2017-06-22T18:52:32.144Z,27.0
2017-06-22T18:53:40.235Z,27.0
2017-06-22T18:54:48.329Z,27.0
2017-06-22T18:55:56.418Z,27.0
2017-06-22T18:57:04.509Z,27.0
2017-06-22T18:58:12.602Z,27.0
2017-06-22T18:59:20.689Z,27.0
2017-06-22T19:00:28.782Z,27.0
2017-06-22T19:01:36.871Z,27.0
2017-06-22T19:02:44.961Z,26.9
2017-06-22T19:03:53.054Z,26.9
2017-06-22T19:05:01.145Z,27.0
2017-06-22T19:06:09.235Z,26.9
2017-06-22T19:07:17.326Z,26.9
2017-06-22T19:08:25.417Z,26.9
2017-06-22T19:09:33.506Z,26.9
2017-06-22T19:10:41.597Z,26.9
2017-06-22T19:11:49.689Z,26.9
2017-06-22T19:12:57.779Z,26.9
2017-06-22T19:14:05.871Z,26.8
2017-06-22T19:15:13.962Z,26.9
2017-06-22T19:16:22.052Z,26.9
2017-06-22T19:17:30.161Z,26.9
2017-06-22T19:18:38.233Z,26.9
2017-06-22T19:19:46.332Z,26.9
2017-06-22T19:20:54.422Z,26.9
2017-06-22T19:22:02.514Z,26.9
2017-06-22T19:23:10.606Z,26.9
2017-06-22T19:24:18.698Z,26.9
2017-06-22T19:25:26.788Z,26.9
2017-06-22T19:26:34.879Z,26.9
2017-06-22T19:27:42.969Z,26.9
2017-06-22T19:28:51.059Z,26.9
2017-06-22T19:29:59.151Z,26.8
2017-06-22T19:31:07.242Z,26.9
2017-06-22T19:32:15.335Z,26.8
2017-06-22T19:33:23.425Z,26.8
2017-06-22T19:34:31.516Z,26.8
2017-06-22T19:35:39.606Z,26.8
2017-06-22T19:36:47.695Z,26.8
2017-06-22T19:37:55.785Z,26.9
2017-06-22T19:39:03.879Z,26.7
2017-06-22T19:40:11.973Z,26.8
2017-06-22T19:41:20.063Z,26.8
2017-06-22T19:42:28.154Z,26.8
2017-06-22T19:43:36.246Z,26.8
2017-06-22T19:44:44.336Z,26.9
2017-06-22T19:45:52.428Z,26.8
2017-06-22T19:47:00.519Z,26.9
2017-06-22T19:48:08.610Z,26.9
2017-06-22T19:49:16.701Z,26.8
2017-06-22T19:50:24.832Z,26.9
2017-06-22T19:51:32.983Z,26.8
2017-06-22T19:52:41.061Z,26.9
2017-06-22T19:53:49.062Z,26.7
2017-06-22T19:54:57.154Z,26.8
2017-06-22T19:56:05.243Z,26.8
2017-06-22T19:57:13.335Z,26.9
2017-06-22T19:58:21.426Z,26.8
2017-06-22T19:59:29.517Z,26.8
2017-06-22T20:00:37.608Z,26.8
2017-06-22T20:01:45.696Z,26.9
2017-06-22T20:02:53.789Z,26.8
2017-06-22T20:04:01.882Z,26.7
2017-06-22T20:05:09.970Z,26.7
2017-06-22T20:06:18.061Z,26.7
2017-06-22T20:07:26.150Z,26.8
2017-06-22T20:08:34.242Z,26.8
2017-06-22T20:09:42.334Z,26.8
2017-06-22T20:10:50.423Z,26.9
2017-06-22T20:11:58.514Z,26.8
2017-06-22T20:13:06.606Z,26.8
2017-06-22T20:14:14.693Z,26.9
2017-06-22T20:15:22.788Z,26.8
2017-06-22T20:16:30.879Z,26.8
2017-06-22T20:17:38.967Z,26.8
2017-06-22T20:18:47.058Z,26.7
2017-06-22T20:19:55.151Z,26.8
2017-06-22T20:21:03.240Z,26.8
2017-06-22T20:22:11.371Z,26.7
2017-06-22T20:23:19.424Z,26.7
2017-06-22T20:24:27.513Z,26.8
2017-06-22T20:25:35.602Z,26.7
2017-06-22T20:26:43.698Z,26.7
2017-06-22T20:27:51.786Z,26.8
2017-06-22T20:28:59.875Z,26.7
2017-06-22T20:30:07.965Z,26.8
2017-06-22T20:31:16.057Z,26.8
2017-06-22T20:32:24.148Z,26.8
2017-06-22T20:33:32.237Z,26.8
2017-06-22T20:34:40.331Z,26.7
2017-06-22T20:35:48.419Z,26.7
2017-06-22T20:36:56.534Z,26.7
2017-06-22T20:38:04.605Z,26.7
2017-06-22T20:39:12.778Z,26.7
2017-06-22T20:40:20.782Z,26.7
2017-06-22T20:41:28.874Z,26.7
2017-06-22T20:42:36.964Z,26.8
2017-06-22T20:43:45.055Z,26.7
2017-06-22T20:44:53.143Z,26.7
2017-06-22T20:46:01.236Z,26.7
2017-06-22T20:47:09.326Z,26.8
2017-06-22T20:48:17.414Z,26.7
2017-06-22T20:49:25.508Z,26.7
2017-06-22T20:50:33.598Z,26.8
2017-06-22T20:51:41.691Z,26.6
2017-06-22T20:52:49.780Z,26.7
2017-06-22T20:53:57.869Z,26.7
2017-06-22T20:55:05.959Z,26.7
2017-06-22T20:56:14.091Z,26.8
2017-06-22T20:57:22.141Z,26.7
2017-06-22T20:58:30.231Z,26.6
2017-06-22T20:59:38.321Z,26.6
2017-06-22T21:00:46.413Z,26.6
2017-06-22T21:01:54.504Z,26.6
2017-06-22T21:03:02.594Z,26.7
2017-06-22T21:04:10.683Z,26.7
2017-06-22T21:05:18.775Z,26.7
2017-06-22T21:06:26.862Z,26.7
2017-06-22T21:07:34.952Z,26.7
2017-06-22T21:08:43.046Z,26.7
2017-06-22T21:09:51.136Z,26.6
2017-06-22T21:10:59.226Z,26.6
2017-06-22T21:12:07.318Z,26.7
2017-06-22T21:13:15.462Z,26.7
2017-06-22T21:14:23.495Z,26.6
2017-06-22T21:15:31.586Z,26.6
2017-06-22T21:16:39.678Z,26.6
2017-06-22T21:17:47.770Z,26.6
2017-06-22T21:18:55.858Z,26.7
2017-06-22T21:20:03.949Z,26.7
2017-06-22T21:21:12.040Z,26.7
2017-06-22T21:22:20.132Z,26.6
2017-06-22T21:23:28.223Z,26.6
2017-06-22T21:24:36.311Z,26.6
2017-06-22T21:25:44.400Z,26.7
2017-06-22T21:26:52.494Z,26.6
2017-06-22T21:28:00.580Z,26.6
2017-06-22T21:29:08.675Z,26.6
2017-06-22T21:30:16.802Z,26.7
2017-06-22T21:31:24.858Z,26.6
2017-06-22T21:32:32.949Z,26.7
2017-06-22T21:33:41.043Z,26.6
2017-06-22T21:34:49.132Z,26.6
2017-06-22T21:35:57.224Z,26.6
2017-06-22T21:37:05.315Z,26.6
2017-06-22T21:38:13.406Z,26.6
2017-06-22T21:39:21.496Z,26.6
2017-06-22T21:40:29.588Z,26.7
2017-06-22T21:41:37.676Z,26.6
2017-06-22T21:42:45.766Z,26.7
2017-06-22T21:43:53.854Z,26.5
2017-06-22T21:45:01.950Z,26.6
2017-06-22T21:46:10.038Z,26.6
2017-06-22T21:47:18.202Z,26.6
2017-06-22T21:48:26.218Z,26.6
2017-06-22T21:49:34.311Z,26.6
2017-06-22T21:50:42.401Z,26.6
2017-06-22T21:51:50.491Z,26.6
2017-06-22T21:52:58.580Z,26.6
2017-06-22T21:54:06.671Z,26.6
2017-06-22T21:55:14.763Z,26.6
2017-06-22T21:56:22.853Z,26.6
2017-06-22T21:57:30.944Z,26.6
2017-06-22T21:58:39.033Z,26.6
2017-06-22T21:59:47.125Z,26.6
2017-06-22T22:00:55.215Z,26.6
2017-06-22T22:02:03.305Z,26.6
2017-06-22T22:03:11.393Z,26.5
2017-06-22T22:04:19.521Z,26.5
2017-06-22T22:05:27.578Z,26.6
2017-06-22T22:06:35.664Z,26.6
2017-06-22T22:07:43.756Z,26.5
2017-06-22T22:08:51.848Z,26.5
2017-06-22T22:09:59.936Z,26.6
2017-06-22T22:11:08.026Z,26.6
2017-06-22T22:12:16.119Z,26.5
2017-06-22T22:13:24.205Z,26.6
2017-06-22T22:14:32.297Z,26.5
2017-06-22T22:15:40.388Z,26.6
2017-06-22T22:16:48.477Z,26.6
2017-06-22T22:17:56.568Z,26.6
2017-06-22T22:19:04.660Z,26.6
2017-06-22T22:20:12.751Z,26.5
2017-06-22T22:21:20.874Z,26.5
2017-06-22T22:22:28.928Z,26.6
2017-06-22T22:23:37.288Z,26.5
2017-06-22T22:24:45.110Z,26.5
2017-06-22T22:25:53.199Z,26.5
2017-06-22T22:27:01.291Z,26.4
2017-06-22T22:28:09.381Z,26.5
2017-06-22T22:29:17.470Z,26.6
2017-06-22T22:30:25.582Z,26.4
2017-06-22T22:31:33.652Z,26.5
2017-06-22T22:32:41.743Z,26.5
2017-06-22T22:33:49.833Z,26.5
2017-06-22T22:34:57.922Z,26.5
2017-06-22T22:36:06.013Z,26.5
2017-06-22T22:37:14.105Z,26.5
2017-06-22T22:38:22.194Z,26.5
2017-06-22T22:39:30.284Z,26.5
2017-06-22T22:40:38.376Z,26.5
2017-06-22T22:41:46.476Z,26.5
2017-06-22T22:42:54.567Z,26.6
2017-06-22T22:44:02.657Z,26.5
2017-06-22T22:45:10.748Z,26.4
2017-06-22T22:46:18.846Z,26.5
2017-06-22T22:47:26.936Z,26.5
2017-06-22T22:48:35.027Z,26.4
2017-06-22T22:49:43.119Z,26.4
2017-06-22T22:50:51.209Z,26.5
2017-06-22T22:51:59.299Z,26.4
2017-06-22T22:53:07.389Z,26.4
2017-06-22T22:54:15.479Z,26.5
2017-06-22T22:55:23.570Z,26.5
2017-06-22T22:56:31.661Z,26.4
2017-06-22T22:57:39.749Z,26.4
2017-06-22T22:58:47.840Z,26.5
2017-06-22T22:59:55.932Z,26.5
2017-06-22T23:01:04.023Z,26.5
2017-06-22T23:02:12.115Z,26.4
2017-06-22T23:03:20.203Z,26.5
2017-06-22T23:04:28.295Z,26.4
2017-06-22T23:05:36.385Z,26.4
2017-06-22T23:06:44.477Z,26.5
2017-06-22T23:07:52.562Z,26.4
2017-06-22T23:09:00.654Z,26.5
2017-06-22T23:10:08.744Z,26.5
2017-06-22T23:11:16.836Z,26.4
2017-06-22T23:12:24.926Z,26.4
2017-06-22T23:13:33.017Z,26.4
2017-06-22T23:14:41.108Z,26.4
2017-06-22T23:15:49.200Z,26.4
2017-06-22T23:16:57.287Z,26.4
2017-06-22T23:18:05.378Z,26.4
2017-06-22T23:19:13.469Z,26.3
2017-06-22T23:20:21.559Z,26.4
2017-06-22T23:21:29.648Z,26.4
2017-06-22T23:22:37.740Z,26.4
2017-06-22T23:23:45.829Z,26.4
2017-06-22T23:24:53.945Z,26.4
2017-06-22T23:26:02.010Z,26.4
2017-06-22T23:27:10.100Z,26.4
2017-06-22T23:28:18.187Z,26.5
2017-06-22T23:29:26.279Z,26.4
2017-06-22T23:30:34.370Z,26.4
2017-06-22T23:31:42.461Z,26.3
2017-06-22T23:32:50.552Z,26.4
2017-06-22T23:33:58.641Z,26.3
2017-06-22T23:35:06.733Z,26.4
2017-06-22T23:36:14.822Z,26.3
2017-06-22T23:37:22.914Z,26.4
2017-06-22T23:38:31.000Z,26.3
2017-06-22T23:39:39.094Z,26.4
2017-06-22T23:40:47.191Z,26.4
2017-06-22T23:41:55.284Z,26.4
2017-06-22T23:43:03.401Z,26.4
2017-06-22T23:44:11.469Z,26.5
2017-06-22T23:45:19.561Z,26.4
2017-06-22T23:46:27.649Z,26.4
2017-06-22T23:47:35.739Z,26.4
2017-06-22T23:48:43.875Z,26.4
2017-06-22T23:49:51.924Z,26.3
2017-06-22T23:51:00.012Z,26.3
2017-06-22T23:52:08.103Z,26.4
2017-06-22T23:53:16.191Z,26.3
2017-06-22T23:54:24.280Z,26.4
2017-06-22T23:55:32.372Z,26.4
2017-06-22T23:56:40.462Z,26.4
2017-06-22T23:57:48.552Z,26.4
2017-06-22T23:58:56.642Z,26.4
